X  Fechar Metar - Info de Aeroporto     LPMT Montijo Air Base
Temperatura
68°F Temperatura
63°F Ptº Orvalho
83% Humidade



Vento
9 MPH
14 KM/H
4 M/S
8 NÓS



220°
SO
Condições Atuais

Area Aguaceiros Area Aguaceiros
Pressão 1010.84 (hPa) - 29.85 (inHg)
Visibilidade 5 (milha) - 8 (km)
Aeroporto
Código-Aeroporto LPMT

Localização: Montijo Air Base
Distância: 6 (mi)

Metar:
LPMT 172000Z 22008KT 8000 VCSH BKN011 20/17 Q1011

Hora: 2024-06-17 21:00 WEST